Time;durP1;ratioP1;P1;durP2;ratioP2;P2;SDS_P1;SDS_P2;PMS_P1;PMS_P2;Temp;Humidity;BMP_temperature;BMP_pressure;BME280_temperature;BME280_humidity;BME280_pressure;Samples;Min_cycle;Max_cycle;Signal;HPM_P1;HPM_P2
2021/10/08 00:01:49;;;;;;;;;;;10.40;99.90;;;;;;5034407;28;19921;-74
2021/10/08 00:04:14;;;;;;;;;;;10.40;99.90;;;;;;5036073;28;20392;-73
2021/10/08 00:06:40;;;;;;;;;;;10.40;99.90;;;;;;5035165;28;19920;-74
2021/10/08 00:09:05;;;;;;;;;;;10.40;99.90;;;;;;5053888;28;20424;-74
2021/10/08 00:11:31;;;;;;;;;;;10.40;99.90;;;;;;5049471;28;19917;-73
2021/10/08 00:13:56;;;;;;;;;;;10.30;99.90;;;;;;5035740;28;19936;-74
2021/10/08 00:16:22;;;;;;;;;;;10.30;99.90;;;;;;5034896;28;19920;-73
2021/10/08 00:18:48;;;;;;;;;;;10.30;99.90;;;;;;5035570;28;19913;-74
2021/10/08 00:21:13;;;;;;;;;;;10.30;99.90;;;;;;5035884;28;20285;-74
2021/10/08 00:23:39;;;;;;;;;;;10.20;99.90;;;;;;5034463;28;19924;-75
2021/10/08 00:26:05;;;;;;;;;;;10.20;99.90;;;;;;5035611;28;19940;-74
2021/10/08 00:28:30;;;;;;;;;;;10.20;99.90;;;;;;5035372;28;19917;-74
2021/10/08 00:30:56;;;;;;;;;;;10.20;99.90;;;;;;5035249;28;19960;-74
2021/10/08 00:33:21;;;;;;;;;;;10.20;99.90;;;;;;5035449;28;20516;-73
2021/10/08 00:35:47;;;;;;;;;;;10.20;99.90;;;;;;5048144;28;19913;-73
2021/10/08 00:38:12;;;;;;;;;;;10.10;99.90;;;;;;5046901;28;20008;-73
2021/10/08 00:40:40;;;;;;;;;;;10.10;99.90;;;;;;5039194;28;20289;-74
2021/10/08 00:43:06;;;;;;;;;;;10.10;99.90;;;;;;5034926;28;19935;-73
2021/10/08 00:45:32;;;;;;;;;;;10.10;99.90;;;;;;5034882;28;19913;-73
2021/10/08 00:47:58;;;;;;;;;;;10.10;99.90;;;;;;5034126;28;19913;-73
2021/10/08 00:50:24;;;;;;;;;;;10.00;99.90;;;;;;5035117;28;19960;-74
2021/10/08 00:52:50;;;;;;;;;;;10.00;99.90;;;;;;5034844;28;20411;-74
2021/10/08 00:55:15;;;;;;;;;;;10.00;99.90;;;;;;5033503;28;19917;-74
2021/10/08 00:57:44;;;;;;;;;;;10.00;99.90;;;;;;5034697;28;19913;-75
2021/10/08 01:00:10;;;;;;;;;;;10.00;99.90;;;;;;5034537;28;20416;-74
2021/10/08 01:02:35;;;;;;;;;;;9.90;99.90;;;;;;5035322;28;19917;-74
2021/10/08 01:05:03;;;;;;;;;;;9.90;99.90;;;;;;5035968;28;19984;-75
2021/10/08 01:07:29;;;;;;;;;;;9.90;99.90;;;;;;5034755;28;20358;-74
2021/10/08 01:09:54;;;;;;;;;;;9.90;99.90;;;;;;5042109;28;19921;-73
2021/10/08 01:12:20;;;;;;;;;;;10.00;99.90;;;;;;5037232;28;19913;-74
2021/10/08 01:14:45;;;;;;;;;;;10.00;99.90;;;;;;5035599;28;19913;-74
2021/10/08 01:17:12;;;;;;;;;;;10.00;99.90;;;;;;5036640;28;19913;-74
2021/10/08 01:19:37;;;;;;;;;;;10.00;99.90;;;;;;5040842;28;20008;-75
2021/10/08 01:22:03;;;;;;;;;;;10.00;99.90;;;;;;5054000;28;19914;-75
2021/10/08 01:24:28;;;;;;;;;;;10.00;99.90;;;;;;5058221;28;19919;-75
2021/10/08 01:26:54;;;;;;;;;;;9.90;99.90;;;;;;5075422;28;19913;-74
2021/10/08 01:29:19;;;;;;;;;;;9.90;99.90;;;;;;5070696;28;19917;-75
2021/10/08 01:31:46;;;;;;;;;;;9.90;99.90;;;;;;5054439;28;19913;-74
2021/10/08 01:34:11;;;;;;;;;;;9.90;99.90;;;;;;5053916;28;19913;-74
2021/10/08 01:36:37;;;;;;;;;;;9.90;99.90;;;;;;5050912;28;20288;-74
2021/10/08 01:39:02;;;;;;;;;;;9.90;99.90;;;;;;5053352;28;19906;-72
2021/10/08 01:41:28;;;;;;;;;;;10.00;99.90;;;;;;5075192;28;19909;-74
2021/10/08 01:43:53;;;;;;;;;;;10.00;99.90;;;;;;5057589;28;19917;-74
2021/10/08 01:46:19;;;;;;;;;;;9.90;99.90;;;;;;5075014;28;19917;-73
2021/10/08 01:48:44;;;;;;;;;;;9.90;99.90;;;;;;5077993;28;19917;-72
2021/10/08 01:51:10;;;;;;;;;;;9.90;99.90;;;;;;5074040;28;19948;-74
2021/10/08 01:53:35;;;;;;;;;;;9.90;99.90;;;;;;5075764;28;19960;-74
2021/10/08 01:56:01;;;;;;;;;;;9.90;99.90;;;;;;5075051;28;19920;-74
2021/10/08 01:58:26;;;;;;;;;;;9.90;99.90;;;;;;5062750;28;19912;-74
2021/10/08 02:00:52;;;;;;;;;;;9.80;99.90;;;;;;5043548;28;19959;-73
2021/10/08 02:03:17;;;;;;;;;;;9.80;99.90;;;;;;5037597;28;20432;-73
2021/10/08 02:05:43;;;;;;;;;;;9.70;99.90;;;;;;5034839;28;19913;-73
2021/10/08 02:08:08;;;;;;;;;;;9.70;99.90;;;;;;5035403;28;19984;-74
2021/10/08 02:10:34;;;;;;;;;;;9.70;99.90;;;;;;5034708;28;20325;-74
2021/10/08 02:12:59;;;;;;;;;;;9.70;99.90;;;;;;5046267;28;19920;-73
2021/10/08 02:15:25;;;;;;;;;;;9.60;99.90;;;;;;5047860;28;19912;-74
2021/10/08 02:17:51;;;;;;;;;;;9.60;99.90;;;;;;5053621;28;20051;-74
2021/10/08 02:20:16;;;;;;;;;;;9.50;99.90;;;;;;5038128;28;19913;-73
2021/10/08 02:22:42;;;;;;;;;;;9.60;99.90;;;;;;5033804;28;19940;-74
2021/10/08 02:25:08;;;;;;;;;;;9.60;99.90;;;;;;5033279;28;20552;-74
2021/10/08 02:27:34;;;;;;;;;;;9.60;99.90;;;;;;5033542;28;19913;-74
2021/10/08 02:29:59;;;;;;;;;;;9.60;99.90;;;;;;5031861;28;19961;-74
2021/10/08 02:32:25;;;;;;;;;;;9.50;99.90;;;;;;5041207;28;19913;-74
2021/10/08 02:34:50;;;;;;;;;;;9.40;99.90;;;;;;5050844;28;19912;-73
2021/10/08 02:37:16;;;;;;;;;;;9.50;99.90;;;;;;5053247;28;19952;-74
2021/10/08 02:39:41;;;;;;;;;;;9.40;99.90;;;;;;5040132;28;19914;-74
2021/10/08 02:42:07;;;;;;;;;;;9.40;99.90;;;;;;5032950;28;19913;-73
2021/10/08 02:44:33;;;;;;;;;;;9.50;99.90;;;;;;5033088;28;20347;-73
2021/10/08 02:46:59;;;;;;;;;;;9.50;99.90;;;;;;5032193;28;19924;-74
2021/10/08 02:49:24;;;;;;;;;;;9.50;99.90;;;;;;5029415;28;20297;-73
2021/10/08 02:51:51;;;;;;;;;;;9.50;99.90;;;;;;5036992;28;19913;-73
2021/10/08 02:54:16;;;;;;;;;;;9.50;99.90;;;;;;5052724;28;20277;-73
2021/10/08 02:56:42;;;;;;;;;;;9.50;99.90;;;;;;5042033;28;19920;-73
2021/10/08 02:59:08;;;;;;;;;;;9.40;99.90;;;;;;5033008;28;19913;-74
2021/10/08 03:01:33;;;;;;;;;;;9.40;99.90;;;;;;5033162;28;19913;-74
2021/10/08 03:04:00;;;;;;;;;;;9.50;99.90;;;;;;5051026;28;20003;-74
2021/10/08 03:06:26;;;;;;;;;;;9.50;99.90;;;;;;5051271;28;20413;-73
2021/10/08 03:08:53;;;;;;;;;;;9.50;99.90;;;;;;5039405;28;19948;-73
2021/10/08 03:11:18;;;;;;;;;;;9.30;99.90;;;;;;5036353;28;19924;-73
2021/10/08 03:13:44;;;;;;;;;;;9.30;99.90;;;;;;5050765;28;19913;-73
2021/10/08 03:16:10;;;;;;;;;;;9.30;99.90;;;;;;5032892;28;19920;-73
2021/10/08 03:18:35;;;;;;;;;;;9.20;99.90;;;;;;5032691;28;20373;-73
2021/10/08 03:21:01;;;;;;;;;;;9.10;99.90;;;;;;5032843;28;19913;-74
2021/10/08 03:23:26;;;;;;;;;;;9.10;99.90;;;;;;5035508;28;20035;-73
2021/10/08 03:25:52;;;;;;;;;;;9.10;99.90;;;;;;5032728;28;19913;-74
2021/10/08 03:28:17;;;;;;;;;;;9.10;99.90;;;;;;5031355;28;19914;-74
2021/10/08 03:30:43;;;;;;;;;;;9.10;99.90;;;;;;5034931;28;20011;-73
2021/10/08 03:33:08;;;;;;;;;;;9.10;99.90;;;;;;5035841;28;19917;-73
2021/10/08 03:35:34;;;;;;;;;;;9.10;99.90;;;;;;5036438;28;20373;-74
2021/10/08 03:38:10;;;;;;;;;;;9.10;99.90;;;;;;5034825;28;19964;-74
2021/10/08 03:40:36;;;;;;;;;;;9.00;99.90;;;;;;5051836;28;19917;-73
2021/10/08 03:43:01;;;;;;;;;;;9.00;99.90;;;;;;5036214;28;20258;-74
2021/10/08 03:45:34;;;;;;;;;;;9.00;99.90;;;;;;5035176;28;19913;-74
2021/10/08 03:50:28;;;;;;;;;;;9.10;99.90;;;;;;5055124;28;19917;-73
2021/10/08 03:52:54;;;;;;;;;;;9.20;99.90;;;;;;5053544;28;20377;-73
2021/10/08 03:55:19;;;;;;;;;;;9.20;99.90;;;;;;5056037;28;19917;-73
2021/10/08 03:57:45;;;;;;;;;;;9.10;99.90;;;;;;5044183;28;19913;-74
2021/10/08 04:00:13;;;;;;;;;;;9.00;99.90;;;;;;5036354;28;20389;-73
2021/10/08 04:02:39;;;;;;;;;;;9.00;99.90;;;;;;5040964;28;19967;-74
2021/10/08 04:05:05;;;;;;;;;;;9.00;99.90;;;;;;5034650;28;19921;-74
2021/10/08 04:07:30;;;;;;;;;;;9.10;99.90;;;;;;5036188;28;19956;-73
2021/10/08 04:09:56;;;;;;;;;;;9.10;99.90;;;;;;5035075;28;20289;-73
2021/10/08 04:12:21;;;;;;;;;;;9.00;99.90;;;;;;5037060;28;19920;-73
2021/10/08 04:14:47;;;;;;;;;;;8.90;99.90;;;;;;5036323;28;19920;-74
2021/10/08 04:17:12;;;;;;;;;;;8.90;99.90;;;;;;5036256;28;19984;-73
2021/10/08 04:19:38;;;;;;;;;;;8.90;99.90;;;;;;5049977;28;20262;-73
2021/10/08 04:22:03;;;;;;;;;;;8.90;99.90;;;;;;5043931;28;20390;-73
2021/10/08 04:24:29;;;;;;;;;;;8.90;99.90;;;;;;5036825;28;19924;-73
2021/10/08 04:26:54;;;;;;;;;;;8.90;99.90;;;;;;5047885;28;19935;-75
2021/10/08 04:29:20;;;;;;;;;;;8.90;99.90;;;;;;5056863;28;19996;-74
2021/10/08 04:31:45;;;;;;;;;;;8.90;99.90;;;;;;5054280;28;19927;-73
2021/10/08 04:34:11;;;;;;;;;;;8.90;99.90;;;;;;5055098;28;20663;-74
2021/10/08 04:36:40;;;;;;;;;;;8.80;99.90;;;;;;5053838;28;19924;-74
2021/10/08 04:39:06;;;;;;;;;;;8.70;99.90;;;;;;5051799;28;19913;-74
2021/10/08 04:41:31;;;;;;;;;;;8.70;99.90;;;;;;5055118;28;19913;-74
2021/10/08 04:43:57;;;;;;;;;;;8.70;99.90;;;;;;5059392;28;19901;-74
2021/10/08 04:46:22;;;;;;;;;;;8.60;99.90;;;;;;5059099;28;19928;-72
2021/10/08 04:48:48;;;;;;;;;;;8.70;99.90;;;;;;5059241;28;19951;-72
2021/10/08 04:51:13;;;;;;;;;;;8.80;99.90;;;;;;5058875;28;19932;-73
2021/10/08 04:53:39;;;;;;;;;;;8.70;99.90;;;;;;5058355;28;19921;-73
2021/10/08 04:56:04;;;;;;;;;;;8.70;99.90;;;;;;5066974;28;19924;-74
2021/10/08 04:58:30;;;;;;;;;;;8.60;99.90;;;;;;5042115;28;19990;-72
2021/10/08 05:00:55;;;;;;;;;;;8.50;99.90;;;;;;5036339;28;20262;-72
2021/10/08 05:03:21;;;;;;;;;;;8.40;99.90;;;;;;5056258;28;20388;-73
2021/10/08 05:05:47;;;;;;;;;;;8.30;99.90;;;;;;5046436;28;19974;-73
2021/10/08 05:08:14;;;;;;;;;;;8.30;99.90;;;;;;5046217;28;20012;-72
2021/10/08 05:10:40;;;;;;;;;;;8.30;99.90;;;;;;5051806;28;20368;-74
2021/10/08 05:13:05;;;;;;;;;;;8.30;99.90;;;;;;5054301;28;19912;-73
2021/10/08 05:15:31;;;;;;;;;;;8.30;99.90;;;;;;5053676;28;19920;-73
2021/10/08 05:17:56;;;;;;;;;;;8.40;99.90;;;;;;5034413;28;20054;-73
2021/10/08 05:20:22;;;;;;;;;;;8.50;99.90;;;;;;5034580;28;20277;-73
2021/10/08 05:22:47;;;;;;;;;;;8.50;99.90;;;;;;5034343;28;19913;-73
2021/10/08 05:25:13;;;;;;;;;;;8.50;99.90;;;;;;5034025;28;19913;-73
2021/10/08 05:27:38;;;;;;;;;;;8.40;99.90;;;;;;5049636;28;19917;-73
2021/10/08 05:30:05;;;;;;;;;;;8.40;99.90;;;;;;5034133;28;19921;-74
2021/10/08 05:32:31;;;;;;;;;;;8.40;99.90;;;;;;5034157;28;19913;-73
2021/10/08 05:34:56;;;;;;;;;;;8.40;99.90;;;;;;5032999;28;20007;-73
2021/10/08 05:37:22;;;;;;;;;;;8.40;99.90;;;;;;5034175;28;19919;-73
2021/10/08 05:39:47;;;;;;;;;;;8.40;99.90;;;;;;5032693;28;19913;-72
2021/10/08 05:42:13;;;;;;;;;;;8.40;99.90;;;;;;5039686;28;19919;-73
2021/10/08 05:44:38;;;;;;;;;;;8.40;99.90;;;;;;5034430;28;19944;-73
2021/10/08 05:47:04;;;;;;;;;;;8.40;99.90;;;;;;5033094;28;19917;-73
2021/10/08 05:49:29;;;;;;;;;;;8.30;99.90;;;;;;5064481;28;19920;-73
2021/10/08 05:51:55;;;;;;;;;;;8.30;99.90;;;;;;5043848;28;19956;-73
2021/10/08 05:54:20;;;;;;;;;;;8.40;99.90;;;;;;5050654;28;19916;-73
2021/10/08 05:56:46;;;;;;;;;;;8.40;99.90;;;;;;5048577;28;19974;-74
2021/10/08 05:59:11;;;;;;;;;;;8.30;99.90;;;;;;5035871;28;20334;-74
2021/10/08 06:01:37;;;;;;;;;;;8.40;99.90;;;;;;5033829;28;19913;-74
2021/10/08 06:04:06;;;;;;;;;;;8.40;99.90;;;;;;5038875;28;19913;-74
2021/10/08 06:06:32;;;;;;;;;;;8.40;99.90;;;;;;5051504;28;19935;-73
2021/10/08 06:08:57;;;;;;;;;;;8.40;99.90;;;;;;5039315;28;19936;-73
2021/10/08 06:11:23;;;;;;;;;;;8.40;99.90;;;;;;5032419;28;19917;-74
2021/10/08 06:13:48;;;;;;;;;;;8.40;99.90;;;;;;5033742;28;20399;-74
2021/10/08 06:16:14;;;;;;;;;;;8.40;99.90;;;;;;5036120;28;20313;-74
2021/10/08 06:18:39;;;;;;;;;;;8.40;99.90;;;;;;5045041;28;19967;-74
2021/10/08 06:21:05;;;;;;;;;;;8.40;99.90;;;;;;5051673;28;20003;-74
2021/10/08 06:23:30;;;;;;;;;;;8.30;99.90;;;;;;5048873;28;19920;-73
2021/10/08 06:25:56;;;;;;;;;;;8.30;99.90;;;;;;5033315;28;19971;-74
2021/10/08 06:28:21;;;;;;;;;;;8.30;99.90;;;;;;5032428;28;20369;-74
2021/10/08 06:30:47;;;;;;;;;;;8.40;99.90;;;;;;5041776;28;19920;-74
2021/10/08 06:33:12;;;;;;;;;;;8.40;99.90;;;;;;5033308;28;19920;-74
2021/10/08 06:35:38;;;;;;;;;;;8.40;99.90;;;;;;5033217;28;19983;-74
2021/10/08 06:38:05;;;;;;;;;;;8.30;99.90;;;;;;5043615;28;19978;-74
2021/10/08 06:40:30;;;;;;;;;;;8.30;99.90;;;;;;5032024;28;20369;-74
2021/10/08 06:42:56;;;;;;;;;;;8.30;99.90;;;;;;5034905;28;19920;-74
2021/10/08 06:45:22;;;;;;;;;;;8.30;99.90;;;;;;5033290;28;19920;-75
2021/10/08 06:47:48;;;;;;;;;;;8.30;99.90;;;;;;5036263;28;19913;-75
2021/10/08 06:50:13;;;;;;;;;;;8.40;99.90;;;;;;5053365;28;19924;-74
2021/10/08 06:52:39;;;;;;;;;;;8.40;99.90;;;;;;5040015;28;19924;-74
2021/10/08 06:55:05;;;;;;;;;;;8.40;99.90;;;;;;5049303;28;19912;-74
2021/10/08 06:57:30;;;;;;;;;;;8.50;99.90;;;;;;5040283;28;20356;-74
2021/10/08 06:59:56;;;;;;;;;;;8.50;99.90;;;;;;5034038;28;19956;-74
2021/10/08 07:02:21;;;;;;;;;;;8.50;99.90;;;;;;5039284;28;19912;-74
2021/10/08 07:04:47;;;;;;;;;;;8.50;99.90;;;;;;5054677;28;19913;-74
2021/10/08 07:07:12;;;;;;;;;;;8.50;99.90;;;;;;5037540;28;19920;-74
2021/10/08 07:09:38;;;;;;;;;;;8.50;99.90;;;;;;5039565;28;19917;-74
2021/10/08 07:12:03;;;;;;;;;;;8.50;99.90;;;;;;5045991;28;19913;-75
2021/10/08 07:14:29;;;;;;;;;;;8.50;99.90;;;;;;5062425;28;19921;-75
2021/10/08 07:16:55;;;;;;;;;;;8.60;99.90;;;;;;5055917;28;19917;-77
2021/10/08 07:19:22;;;;;;;;;;;8.70;99.90;;;;;;5058967;28;19921;-77
2021/10/08 07:21:47;;;;;;;;;;;8.70;99.90;;;;;;5064654;28;19913;-74
2021/10/08 07:24:14;;;;;;;;;;;8.80;99.90;;;;;;5061415;28;19996;-74
2021/10/08 07:26:39;;;;;;;;;;;8.80;99.90;;;;;;5057201;28;19984;-74
2021/10/08 07:29:05;;;;;;;;;;;8.90;99.90;;;;;;5059854;28;19916;-76
2021/10/08 07:31:31;;;;;;;;;;;9.00;99.90;;;;;;5046363;28;20431;-73
2021/10/08 07:33:56;;;;;;;;;;;9.10;99.90;;;;;;5040485;28;19913;-75
2021/10/08 07:36:22;;;;;;;;;;;9.10;99.90;;;;;;5059352;28;20338;-75
2021/10/08 07:38:48;;;;;;;;;;;9.20;99.90;;;;;;5050094;28;19962;-75
2021/10/08 07:41:13;;;;;;;;;;;9.20;99.90;;;;;;5037336;28;20004;-74
2021/10/08 07:43:42;;;;;;;;;;;9.40;99.90;;;;;;5053702;28;19923;-75
2021/10/08 07:46:08;;;;;;;;;;;9.40;99.90;;;;;;5053237;28;19913;-75
2021/10/08 07:48:33;;;;;;;;;;;9.50;99.90;;;;;;5037420;28;19913;-76
2021/10/08 07:50:59;;;;;;;;;;;9.60;99.90;;;;;;5035865;28;20019;-77
2021/10/08 07:53:26;;;;;;;;;;;9.50;99.90;;;;;;5049635;28;19920;-75
2021/10/08 07:55:51;;;;;;;;;;;9.60;99.90;;;;;;5040593;28;19913;-76
2021/10/08 07:58:17;;;;;;;;;;;9.70;99.90;;;;;;5036210;28;19921;-76
2021/10/08 08:00:43;;;;;;;;;;;9.80;99.90;;;;;;5045784;28;19966;-76
2021/10/08 08:03:08;;;;;;;;;;;9.90;99.90;;;;;;5048445;28;19917;-76
2021/10/08 08:05:34;;;;;;;;;;;9.90;99.90;;;;;;5035947;28;20289;-76
2021/10/08 08:07:59;;;;;;;;;;;10.00;99.90;;;;;;5037611;28;19913;-77
2021/10/08 08:10:25;;;;;;;;;;;10.10;99.90;;;;;;5033968;28;19929;-76
2021/10/08 08:12:50;;;;;;;;;;;10.00;99.90;;;;;;5032716;28;19916;-76
2021/10/08 08:15:18;;;;;;;;;;;10.00;99.90;;;;;;5035090;28;20350;-76
2021/10/08 08:17:43;;;;;;;;;;;10.10;99.90;;;;;;5036724;28;19927;-76
2021/10/08 08:20:09;;;;;;;;;;;10.00;99.90;;;;;;5036380;28;19917;-75
2021/10/08 08:22:35;;;;;;;;;;;10.10;99.90;;;;;;5032153;28;19917;-77
2021/10/08 08:25:01;;;;;;;;;;;10.20;99.90;;;;;;5035986;28;20385;-75
2021/10/08 08:27:26;;;;;;;;;;;10.40;99.90;;;;;;5032855;28;19955;-76
2021/10/08 08:29:51;;;;;;;;;;;10.50;99.90;;;;;;5033036;28;19921;-75
2021/10/08 08:32:17;;;;;;;;;;;10.70;99.90;;;;;;5035651;28;19948;-74
2021/10/08 08:34:43;;;;;;;;;;;10.90;99.90;;;;;;5035131;28;19913;-75
2021/10/08 08:37:08;;;;;;;;;;;11.00;99.90;;;;;;5036727;28;19964;-75
2021/10/08 08:39:38;;;;;;;;;;;11.00;99.90;;;;;;5034495;28;19920;-76
2021/10/08 08:42:03;;;;;;;;;;;11.00;99.90;;;;;;5034754;28;19913;-76
2021/10/08 08:44:29;;;;;;;;;;;11.20;99.90;;;;;;5035315;28;19924;-76
2021/10/08 08:46:57;;;;;;;;;;;11.30;99.90;;;;;;5033657;28;20044;-76
2021/10/08 08:49:23;;;;;;;;;;;11.50;99.90;;;;;;5034536;28;20012;-76
2021/10/08 08:51:49;;;;;;;;;;;11.60;99.90;;;;;;5049735;28;19928;-75
2021/10/08 08:54:15;;;;;;;;;;;11.70;99.90;;;;;;5035697;28;19913;-74
2021/10/08 08:56:40;;;;;;;;;;;11.80;99.90;;;;;;5046078;28;19913;-75
2021/10/08 08:59:10;;;;;;;;;;;12.00;99.90;;;;;;5042848;28;20285;-75
2021/10/08 09:01:35;;;;;;;;;;;12.10;99.90;;;;;;5038074;28;19917;-74
2021/10/08 09:04:02;;;;;;;;;;;12.30;99.90;;;;;;5034087;28;19921;-75
2021/10/08 09:06:36;;;;;;;;;;;12.50;99.90;;;;;;5048972;28;19940;-75
2021/10/08 09:09:15;;;;;;;;;;;12.50;99.90;;;;;;5041259;28;20006;-76
2021/10/08 09:11:41;;;;;;;;;;;12.50;99.90;;;;;;5035042;28;19917;-75
2021/10/08 09:14:36;;;;;;;;;;;12.60;99.90;;;;;;5043228;28;19912;-74
2021/10/08 09:17:04;;;;;;;;;;;12.70;99.90;;;;;;5020292;28;19913;-74
2021/10/08 09:19:48;;;;;;;;;;;12.90;99.90;;;;;;5033367;28;19913;-73
2021/10/08 09:22:16;;;;;;;;;;;13.00;99.90;;;;;;5033813;28;20235;-74
2021/10/08 09:24:42;;;;;;;;;;;13.20;99.90;;;;;;5034618;28;20012;-75
2021/10/08 09:27:09;;;;;;;;;;;13.30;99.90;;;;;;5033929;28;20004;-76
2021/10/08 09:29:34;;;;;;;;;;;13.30;99.90;;;;;;5033877;28;19929;-75
2021/10/08 09:32:00;;;;;;;;;;;13.30;99.90;;;;;;5042331;28;19928;-76
2021/10/08 09:34:27;;;;;;;;;;;13.50;99.90;;;;;;5037962;28;20297;-77
2021/10/08 09:39:38;;;;;;;;;;;13.70;99.90;;;;;;5034916;28;19959;-76
2021/10/08 09:42:05;;;;;;;;;;;13.90;99.90;;;;;;5035572;28;19914;-76
2021/10/08 09:44:32;;;;;;;;;;;14.10;99.90;;;;;;5034805;28;20358;-77
2021/10/08 09:47:28;;;;;;;;;;;14.30;99.90;;;;;;5037818;28;19917;-76
2021/10/08 09:50:05;;;;;;;;;;;14.60;99.90;;;;;;5040893;28;19916;-76
2021/10/08 09:52:31;;;;;;;;;;;14.70;99.90;;;;;;5034071;28;19924;-75
2021/10/08 09:54:58;;;;;;;;;;;14.90;99.90;;;;;;5042958;28;19912;-76
2021/10/08 09:57:24;;;;;;;;;;;15.00;99.90;;;;;;5035507;28;20366;-76
2021/10/08 09:59:50;;;;;;;;;;;15.10;99.90;;;;;;5033032;28;19920;-76
2021/10/08 10:02:16;;;;;;;;;;;15.20;99.90;;;;;;5051090;28;19958;-75
2021/10/08 10:04:44;;;;;;;;;;;15.40;99.90;;;;;;5034973;28;20285;-75
2021/10/08 10:07:12;;;;;;;;;;;15.50;99.90;;;;;;5035057;28;19913;-77
2021/10/08 10:09:38;;;;;;;;;;;15.50;99.90;;;;;;5036252;28;19956;-76
2021/10/08 10:12:03;;;;;;;;;;;15.40;99.90;;;;;;5035105;28;20332;-76
2021/10/08 10:14:29;;;;;;;;;;;15.50;99.90;;;;;;5030045;28;19928;-76
2021/10/08 10:16:54;;;;;;;;;;;15.60;99.90;;;;;;5036029;28;19913;-77
2021/10/08 10:19:20;;;;;;;;;;;15.60;99.90;;;;;;5034251;28;19917;-76
2021/10/08 10:21:46;;;;;;;;;;;15.90;99.90;;;;;;5031516;28;19913;-76
2021/10/08 10:24:12;;;;;;;;;;;15.90;99.90;;;;;;5035371;28;19913;-76
2021/10/08 10:26:38;;;;;;;;;;;16.10;99.90;;;;;;5038198;28;19916;-76
2021/10/08 10:29:03;;;;;;;;;;;16.10;99.90;;;;;;5039384;28;19981;-76
2021/10/08 10:31:31;;;;;;;;;;;16.20;99.90;;;;;;5036441;28;19960;-76
2021/10/08 10:34:00;;;;;;;;;;;16.30;99.90;;;;;;5049822;28;19920;-77
2021/10/08 10:36:27;;;;;;;;;;;16.30;99.90;;;;;;5035010;28;19939;-75
2021/10/08 10:39:14;;;;;;;;;;;16.30;99.90;;;;;;5033466;28;19917;-76
2021/10/08 10:41:41;;;;;;;;;;;16.40;99.90;;;;;;5031953;28;20374;-75
2021/10/08 10:44:10;;;;;;;;;;;16.40;99.90;;;;;;5048481;28;19913;-75
2021/10/08 10:46:43;;;;;;;;;;;16.50;99.90;;;;;;5033309;28;19925;-75
2021/10/08 10:51:55;;;;;;;;;;;16.60;99.90;;;;;;5034192;28;19960;-75
2021/10/08 10:54:41;;;;;;;;;;;16.70;99.90;;;;;;5040755;28;20401;-75
2021/10/08 10:57:18;;;;;;;;;;;16.80;99.90;;;;;;5055758;28;20399;-75
2021/10/08 10:59:44;;;;;;;;;;;16.90;99.90;;;;;;5047352;28;19912;-75
2021/10/08 11:02:11;;;;;;;;;;;17.00;99.90;;;;;;5052896;28;19928;-75
2021/10/08 11:04:37;;;;;;;;;;;17.20;99.90;;;;;;5036233;28;19956;-75
2021/10/08 11:07:03;;;;;;;;;;;17.30;99.90;;;;;;5055095;28;20369;-75
2021/10/08 11:09:29;;;;;;;;;;;17.40;99.90;;;;;;5050463;28;20051;-75
2021/10/08 11:12:13;;;;;;;;;;;17.40;99.90;;;;;;5035564;28;19925;-75
2021/10/08 11:14:38;;;;;;;;;;;17.40;99.90;;;;;;5037745;28;19917;-75
2021/10/08 11:17:23;;;;;;;;;;;17.40;99.90;;;;;;5068911;28;19956;-76
2021/10/08 11:19:49;;;;;;;;;;;17.20;99.90;;;;;;5069358;28;19917;-75
2021/10/08 11:22:14;;;;;;;;;;;17.30;99.90;;;;;;5054651;28;19972;-76
2021/10/08 11:24:40;;;;;;;;;;;17.30;99.90;;;;;;5069738;28;19948;-75
2021/10/08 11:27:06;;;;;;;;;;;17.40;99.90;;;;;;5055493;28;19939;-76
2021/10/08 11:29:35;;;;;;;;;;;17.60;99.90;;;;;;5054339;28;19909;-76
2021/10/08 11:32:13;;;;;;;;;;;17.70;99.90;;;;;;5053503;28;20016;-76
2021/10/08 11:34:48;;;;;;;;;;;17.80;99.90;;;;;;5054678;28;19913;-76
2021/10/08 11:37:14;;;;;;;;;;;18.10;99.90;;;;;;5073333;28;19921;-76
2021/10/08 11:39:43;;;;;;;;;;;18.30;99.90;;;;;;5063769;28;19917;-75
2021/10/08 11:42:12;;;;;;;;;;;18.40;99.90;;;;;;5055303;28;19975;-76
2021/10/08 11:44:53;;;;;;;;;;;18.50;99.90;;;;;;5066403;28;19901;-76
2021/10/08 11:47:24;;;;;;;;;;;18.70;99.90;;;;;;5075271;28;19972;-76
2021/10/08 11:49:59;;;;;;;;;;;18.70;99.90;;;;;;5073592;28;19917;-77
2021/10/08 11:52:31;;;;;;;;;;;18.80;99.90;;;;;;5059955;28;19984;-76
2021/10/08 11:55:06;;;;;;;;;;;18.90;99.90;;;;;;5061106;28;19917;-76
2021/10/08 11:57:50;;;;;;;;;;;18.90;99.90;;;;;;5060354;28;19913;-75
2021/10/08 12:00:16;;;;;;;;;;;19.00;99.90;;;;;;5068989;28;19905;-76
2021/10/08 12:02:53;;;;;;;;;;;19.10;99.90;;;;;;5065132;28;19960;-76
2021/10/08 12:05:19;;;;;;;;;;;19.10;99.90;;;;;;5062198;28;19980;-76
2021/10/08 12:08:01;;;;;;;;;;;19.20;99.90;;;;;;5055790;28;20296;-76
2021/10/08 12:10:26;;;;;;;;;;;19.10;99.90;;;;;;5058292;28;19910;-77
2021/10/08 12:12:53;;;;;;;;;;;19.10;99.90;;;;;;5059727;28;19988;-76
2021/10/08 12:15:25;;;;;;;;;;;19.00;99.90;;;;;;5064569;28;19944;-77
2021/10/08 12:17:52;;;;;;;;;;;19.10;99.90;;;;;;5060627;28;20207;-76
2021/10/08 12:20:21;;;;;;;;;;;19.20;99.90;;;;;;5059992;28;19905;-75
2021/10/08 12:22:47;;;;;;;;;;;19.30;99.90;;;;;;5060433;28;19937;-75
2021/10/08 12:25:12;;;;;;;;;;;19.40;99.90;;;;;;5073910;28;19917;-76
2021/10/08 12:27:38;;;;;;;;;;;19.20;99.90;;;;;;5071465;28;20019;-75
2021/10/08 12:30:04;;;;;;;;;;;18.80;99.90;;;;;;5078191;28;19913;-75
2021/10/08 12:32:29;;;;;;;;;;;18.70;99.90;;;;;;5074638;28;19921;-75
2021/10/08 12:34:55;;;;;;;;;;;18.90;99.90;;;;;;5059089;28;19918;-75
2021/10/08 12:37:24;;;;;;;;;;;19.00;99.90;;;;;;5059297;28;19920;-75
2021/10/08 12:39:58;;;;;;;;;;;19.00;99.90;;;;;;5067408;28;19984;-75
2021/10/08 12:42:26;;;;;;;;;;;18.90;99.90;;;;;;5078867;28;19913;-75
2021/10/08 12:44:53;;;;;;;;;;;18.60;99.90;;;;;;5076545;28;19917;-76
2021/10/08 12:47:26;;;;;;;;;;;18.50;99.90;;;;;;5076772;28;19924;-76
2021/10/08 12:49:56;;;;;;;;;;;18.80;99.90;;;;;;5058177;28;19905;-77
2021/10/08 12:52:38;;;;;;;;;;;19.00;99.90;;;;;;5072103;28;19923;-76
2021/10/08 12:55:10;;;;;;;;;;;19.10;99.90;;;;;;5063294;28;19913;-75
2021/10/08 12:57:37;;;;;;;;;;;18.90;99.90;;;;;;5056374;28;19897;-75
2021/10/08 13:00:03;;;;;;;;;;;18.90;99.90;;;;;;5057195;28;19917;-77
2021/10/08 13:02:42;;;;;;;;;;;18.80;99.90;;;;;;5056794;28;19928;-76
2021/10/08 13:05:08;;;;;;;;;;;18.70;99.90;;;;;;5071126;28;19984;-76
2021/10/08 13:07:34;;;;;;;;;;;18.50;99.90;;;;;;5076255;28;19897;-76
2021/10/08 13:10:19;;;;;;;;;;;18.30;99.90;;;;;;5068066;28;19905;-76
2021/10/08 13:12:53;;;;;;;;;;;18.20;99.90;;;;;;5072529;28;19913;-77
2021/10/08 13:15:19;;;;;;;;;;;17.90;99.90;;;;;;5060173;28;19917;-76
2021/10/08 13:17:55;;;;;;;;;;;17.80;99.90;;;;;;5051380;28;19963;-75
2021/10/08 13:20:20;;;;;;;;;;;17.80;99.90;;;;;;5040067;28;19913;-76
2021/10/08 13:22:46;;;;;;;;;;;18.00;99.90;;;;;;5040133;28;19913;-75
2021/10/08 13:25:11;;;;;;;;;;;18.20;99.90;;;;;;5051390;28;20305;-75
2021/10/08 13:27:37;;;;;;;;;;;18.20;99.90;;;;;;5035391;28;19917;-75
2021/10/08 13:30:02;;;;;;;;;;;18.10;99.90;;;;;;5037852;28;19924;-76
2021/10/08 13:32:28;;;;;;;;;;;18.00;99.90;;;;;;5053222;28;19913;-76
2021/10/08 13:34:54;;;;;;;;;;;17.90;99.90;;;;;;5052320;28;19913;-76
2021/10/08 13:37:20;;;;;;;;;;;17.70;99.90;;;;;;5057279;28;19959;-77
2021/10/08 13:39:45;;;;;;;;;;;17.80;99.90;;;;;;5039220;28;20007;-76
2021/10/08 13:42:12;;;;;;;;;;;18.10;99.90;;;;;;5034905;28;19913;-76
2021/10/08 13:44:39;;;;;;;;;;;18.50;99.90;;;;;;5042866;28;19913;-76
2021/10/08 13:47:05;;;;;;;;;;;18.90;99.90;;;;;;5056853;28;19909;-75
2021/10/08 13:49:31;;;;;;;;;;;19.20;99.90;;;;;;5053418;28;20299;-76
2021/10/08 13:51:57;;;;;;;;;;;19.40;99.90;;;;;;5036336;28;20472;-76
2021/10/08 13:54:22;;;;;;;;;;;19.50;99.90;;;;;;5035603;28;19917;-76
2021/10/08 13:56:47;;;;;;;;;;;19.60;99.90;;;;;;5040082;28;20285;-76
2021/10/08 13:59:13;;;;;;;;;;;19.60;99.90;;;;;;5053043;28;19951;-77
2021/10/08 14:02:17;;;;;;;;;;;19.50;99.90;;;;;;5035712;28;20004;-77
2021/10/08 14:07:14;;;;;;;;;;;19.80;99.90;;;;;;5050559;28;20330;-76
2021/10/08 14:12:25;;;;;;;;;;;19.90;99.90;;;;;;5051544;28;19920;-77
2021/10/08 14:14:50;;;;;;;;;;;19.80;99.90;;;;;;5051191;28;20001;-77
2021/10/08 14:17:16;;;;;;;;;;;19.80;99.90;;;;;;5053765;28;20328;-76
2021/10/08 14:19:41;;;;;;;;;;;19.90;99.90;;;;;;5054171;28;20012;-76
2021/10/08 14:22:07;;;;;;;;;;;19.70;99.90;;;;;;5055089;28;19909;-76
2021/10/08 14:24:32;;;;;;;;;;;19.50;99.90;;;;;;5045350;28;19913;-76
2021/10/08 14:26:58;;;;;;;;;;;19.30;99.90;;;;;;5033307;28;19917;-75
2021/10/08 14:29:23;;;;;;;;;;;19.30;99.90;;;;;;5032963;28;19917;-77
2021/10/08 14:31:49;;;;;;;;;;;19.10;99.90;;;;;;5034146;28;19921;-76
2021/10/08 14:34:14;;;;;;;;;;;19.20;99.90;;;;;;5042848;28;19917;-76
2021/10/08 14:36:40;;;;;;;;;;;19.30;99.90;;;;;;5038207;28;19959;-76